Time;durP1;ratioP1;P1;durP2;ratioP2;P2;SDS_P1;SDS_P2;PMS_P1;PMS_P2;Temp;Humidity;BMP_temperature;BMP_pressure;BME280_temperature;BME280_humidity;BME280_pressure;Samples;Min_cycle;Max_cycle;Signal;HPM_P1;HPM_P2
2023/07/04 00:00:58;;;;;;;10.80;3.10;;;14.30;99.90;;;;;;5070511;28;20520;-84
2023/07/04 00:03:24;;;;;;;11.00;2.55;;;14.30;99.90;;;;;;5070458;28;20043;-84
2023/07/04 00:05:49;;;;;;;11.23;2.53;;;14.30;99.90;;;;;;5053665;28;20032;-84
2023/07/04 00:08:15;;;;;;;13.07;4.45;;;14.20;99.90;;;;;;5070286;28;20152;-86
2023/07/04 00:10:42;;;;;;;10.40;2.58;;;14.30;99.90;;;;;;5070170;28;20051;-85
2023/07/04 00:13:07;;;;;;;7.05;2.08;;;14.30;99.90;;;;;;5071233;28;20048;-84
2023/07/04 00:15:45;;;;;;;14.70;4.00;;;14.20;99.90;;;;;;5128943;27;20541;-83
2023/07/04 00:18:11;;;;;;;14.07;4.80;;;14.30;99.90;;;;;;5127913;28;20167;-83
2023/07/04 00:20:37;;;;;;;10.15;2.55;;;14.30;99.90;;;;;;5127849;28;20039;-83
2023/07/04 00:23:04;;;;;;;10.55;2.78;;;14.20;99.90;;;;;;5127866;27;20039;-83
2023/07/04 00:25:31;;;;;;;14.00;4.30;;;14.20;99.90;;;;;;5110231;28;20071;-83
2023/07/04 00:27:56;;;;;;;9.63;2.70;;;14.20;99.90;;;;;;5127642;27;20036;-83
2023/07/04 00:30:22;;;;;;;10.05;3.28;;;14.20;99.90;;;;;;5127501;28;20423;-83
2023/07/04 00:32:47;;;;;;;14.55;4.25;;;14.20;99.90;;;;;;5127585;28;20035;-83
2023/07/04 00:35:13;;;;;;;11.70;3.13;;;14.20;99.90;;;;;;5127205;28;20466;-83
2023/07/04 00:37:39;;;;;;;7.82;2.10;;;14.10;99.90;;;;;;5110446;28;20042;-83
2023/07/04 00:40:09;;;;;;;13.55;3.38;;;14.10;99.90;;;;;;5127338;28;20612;-83
2023/07/04 00:42:36;;;;;;;14.25;4.70;;;14.00;99.90;;;;;;5127700;27;20039;-83
2023/07/04 00:45:09;;;;;;;9.85;2.40;;;14.10;99.90;;;;;;5127448;28;20520;-83
2023/07/04 00:47:43;;;;;;;12.95;4.28;;;14.10;99.90;;;;;;5127103;27;20378;-83
2023/07/04 00:50:13;;;;;;;14.13;4.38;;;14.10;99.90;;;;;;5127308;27;20147;-83
2023/07/04 00:52:39;;;;;;;8.20;2.55;;;14.10;99.90;;;;;;5126996;27;20843;-83
2023/07/04 00:55:10;;;;;;;13.38;4.45;;;14.10;99.90;;;;;;5127009;28;20046;-83
2023/07/04 00:57:38;;;;;;;10.02;2.45;;;14.10;99.90;;;;;;5127234;28;20031;-83
2023/07/04 01:00:17;;;;;;;14.38;4.90;;;14.10;99.90;;;;;;5126773;28;20047;-83
2023/07/04 01:02:45;;;;;;;9.20;2.42;;;14.10;99.90;;;;;;5127258;28;20438;-83
2023/07/04 01:05:14;;;;;;;7.82;2.38;;;14.00;99.90;;;;;;5109850;28;20039;-83
2023/07/04 01:08:10;;;;;;;8.88;2.65;;;14.00;99.90;;;;;;5109468;28;20039;-83
2023/07/04 01:10:44;;;;;;;17.10;5.10;;;13.90;99.90;;;;;;5125358;27;20047;-83
2023/07/04 01:13:35;;;;;;;15.68;5.55;;;14.00;99.90;;;;;;5126532;28;20450;-83
2023/07/04 01:16:09;;;;;;;11.25;3.88;;;14.00;99.90;;;;;;5109635;28;20039;-83
2023/07/04 01:18:37;;;;;;;14.32;4.70;;;14.00;99.90;;;;;;5110011;28;20039;-83
2023/07/04 01:21:05;;;;;;;9.18;2.50;;;14.00;99.90;;;;;;5126736;28;20039;-82
2023/07/04 01:23:45;;;;;;;12.65;4.75;;;13.90;99.90;;;;;;5126694;27;20050;-83
2023/07/04 01:26:30;;;;;;;15.45;4.93;;;13.90;99.90;;;;;;5100754;28;20042;-83
2023/07/04 01:28:57;;;;;;;10.02;2.28;;;14.00;99.90;;;;;;5112755;28;20122;-83
2023/07/04 01:31:27;;;;;;;6.75;1.92;;;13.90;99.90;;;;;;5112550;28;20496;-83
2023/07/04 01:33:53;;;;;;;9.45;2.50;;;13.90;99.90;;;;;;5112711;28;20570;-83
2023/07/04 01:36:24;;;;;;;11.57;2.85;;;13.80;99.90;;;;;;5113555;28;20042;-83
2023/07/04 01:38:51;;;;;;;13.30;5.07;;;13.80;99.90;;;;;;5114196;28;20046;-83
2023/07/04 01:41:17;;;;;;;6.95;2.35;;;13.80;99.90;;;;;;5113008;28;20055;-83
2023/07/04 01:43:50;;;;;;;12.90;4.20;;;13.80;99.90;;;;;;5112754;28;20496;-84
2023/07/04 01:46:16;;;;;;;8.48;2.65;;;13.80;99.90;;;;;;5112617;28;20500;-83
2023/07/04 01:48:42;;;;;;;10.80;4.20;;;13.70;99.90;;;;;;5111930;28;20092;-83
2023/07/04 01:51:07;;;;;;;9.25;2.60;;;13.70;99.90;;;;;;5112385;28;20051;-83
2023/07/04 01:53:33;;;;;;;11.00;3.33;;;13.70;99.90;;;;;;5112410;28;20032;-83
2023/07/04 01:55:59;;;;;;;10.43;3.05;;;13.70;99.90;;;;;;5112475;28;20042;-83
2023/07/04 01:58:24;;;;;;;12.02;2.25;;;13.60;99.90;;;;;;5094950;28;20405;-83
2023/07/04 02:00:50;;;;;;;9.07;2.20;;;13.60;99.90;;;;;;5112237;28;20039;-83
2023/07/04 02:03:16;;;;;;;11.13;4.00;;;13.60;99.90;;;;;;5095261;28;20467;-83
2023/07/04 02:05:41;;;;;;;7.80;2.17;;;13.60;99.90;;;;;;5112303;28;20031;-82
2023/07/04 02:08:08;;;;;;;8.02;2.30;;;13.60;99.90;;;;;;5111730;28;20031;-83
2023/07/04 02:10:34;;;;;;;5.50;2.05;;;13.50;99.90;;;;;;5111882;28;20046;-83
2023/07/04 02:12:59;;;;;;;11.65;2.72;;;13.50;99.90;;;;;;5111906;28;20032;-83
2023/07/04 02:15:25;;;;;;;13.13;4.03;;;13.50;99.90;;;;;;5111715;28;20039;-83
2023/07/04 02:17:51;;;;;;;14.63;4.32;;;13.50;99.90;;;;;;5095001;28;20032;-82
2023/07/04 02:20:17;;;;;;;11.15;4.63;;;13.60;99.90;;;;;;5111486;28;20039;-83
2023/07/04 02:22:43;;;;;;;13.60;2.55;;;13.60;99.90;;;;;;5095262;28;20054;-82
2023/07/04 02:25:10;;;;;;;11.57;2.97;;;13.50;99.90;;;;;;5094902;28;20039;-83
2023/07/04 02:27:36;;;;;;;9.18;2.58;;;13.50;99.90;;;;;;5094030;28;20566;-83
2023/07/04 02:30:03;;;;;;;8.85;2.72;;;13.50;99.90;;;;;;5111440;28;20075;-83
2023/07/04 02:32:29;;;;;;;6.75;2.20;;;13.50;99.90;;;;;;5094896;28;20043;-83
2023/07/04 02:34:55;;;;;;;15.98;4.50;;;13.40;99.90;;;;;;5111342;28;20796;-83
2023/07/04 02:37:21;;;;;;;10.10;2.88;;;13.50;99.90;;;;;;5093294;28;20505;-83
2023/07/04 02:39:46;;;;;;;14.93;4.45;;;13.50;99.90;;;;;;5111150;28;20040;-83
2023/07/04 02:42:12;;;;;;;9.05;2.78;;;13.50;99.90;;;;;;5111707;28;20412;-83
2023/07/04 02:44:37;;;;;;;9.68;2.42;;;13.40;99.90;;;;;;5094600;28;20087;-83
2023/07/04 02:47:03;;;;;;;7.53;2.28;;;13.40;99.90;;;;;;5094158;28;20149;-83
2023/07/04 02:49:29;;;;;;;13.48;4.72;;;13.40;99.90;;;;;;5110784;28;20047;-83
2023/07/04 02:51:55;;;;;;;14.30;4.93;;;13.40;99.90;;;;;;5094391;28;20046;-83
2023/07/04 02:54:20;;;;;;;6.65;2.17;;;13.50;99.90;;;;;;5110787;28;20056;-83
2023/07/04 02:56:46;;;;;;;8.18;1.95;;;13.50;99.90;;;;;;5111224;28;20123;-83
2023/07/04 02:59:12;;;;;;;12.45;2.70;;;13.50;99.90;;;;;;5110650;28;20035;-83
2023/07/04 03:01:37;;;;;;;9.98;2.50;;;13.40;99.90;;;;;;5111427;28;20114;-83
2023/07/04 03:04:03;;;;;;;15.43;4.80;;;13.40;99.90;;;;;;5094217;28;20047;-83
2023/07/04 03:06:29;;;;;;;12.05;2.92;;;13.50;99.90;;;;;;5110863;28;20493;-83
2023/07/04 03:08:56;;;;;;;12.32;5.10;;;13.50;99.90;;;;;;5110491;28;20071;-83
2023/07/04 03:11:22;;;;;;;18.38;5.93;;;13.50;99.90;;;;;;5110862;28;20043;-83
2023/07/04 03:13:49;;;;;;;11.75;3.08;;;13.50;99.90;;;;;;5111833;28;20035;-83
2023/07/04 03:16:14;;;;;;;11.35;2.75;;;13.60;99.90;;;;;;5111130;28;20032;-83
2023/07/04 03:18:40;;;;;;;20.20;6.50;;;13.50;99.90;;;;;;5093523;28;20039;-83
2023/07/04 03:21:05;;;;;;;11.82;3.30;;;13.50;99.90;;;;;;5110283;28;20035;-83
2023/07/04 03:23:31;;;;;;;10.57;3.42;;;13.50;99.90;;;;;;5094170;28;20031;-83
2023/07/04 03:25:57;;;;;;;13.18;3.42;;;13.50;99.90;;;;;;5110422;28;20096;-83
2023/07/04 03:28:22;;;;;;;12.02;3.40;;;13.50;99.90;;;;;;5110419;28;20035;-82
2023/07/04 03:30:48;;;;;;;9.45;2.42;;;13.50;99.90;;;;;;5093430;28;20495;-83
2023/07/04 03:33:14;;;;;;;15.93;5.80;;;13.50;99.90;;;;;;5110460;28;20038;-83
2023/07/04 03:35:39;;;;;;;15.23;5.80;;;13.50;99.90;;;;;;5110037;28;20043;-83
2023/07/04 03:38:05;;;;;;;10.05;3.10;;;13.60;99.90;;;;;;5093054;28;20122;-82
2023/07/04 03:40:31;;;;;;;10.20;2.80;;;13.50;99.90;;;;;;5109059;28;20488;-83
2023/07/04 03:42:57;;;;;;;15.75;3.10;;;13.50;99.90;;;;;;5110696;28;20024;-83
2023/07/04 03:45:22;;;;;;;10.48;3.75;;;13.50;99.90;;;;;;5110673;28;20577;-83
2023/07/04 03:47:48;;;;;;;11.38;3.00;;;13.50;99.90;;;;;;5108683;28;20573;-83
2023/07/04 03:50:13;;;;;;;15.82;5.55;;;13.40;99.90;;;;;;5109524;28;20161;-83
2023/07/04 03:52:40;;;;;;;11.98;3.53;;;13.50;99.90;;;;;;5111779;28;20477;-83
2023/07/04 03:55:07;;;;;;;10.65;3.33;;;13.50;99.90;;;;;;5092887;28;20031;-83
2023/07/04 03:57:33;;;;;;;12.73;3.05;;;13.50;99.90;;;;;;5109625;28;20031;-83
2023/07/04 03:59:58;;;;;;;14.02;5.25;;;13.50;99.90;;;;;;5091848;28;20507;-83
2023/07/04 04:02:24;;;;;;;13.27;3.10;;;13.50;99.90;;;;;;5110710;28;20475;-83
2023/07/04 04:04:49;;;;;;;15.35;3.45;;;13.50;99.90;;;;;;5092964;28;20590;-83
2023/07/04 04:07:16;;;;;;;12.10;3.00;;;13.50;99.90;;;;;;5109094;28;20412;-83
2023/07/04 04:09:42;;;;;;;12.68;3.42;;;13.50;99.90;;;;;;5108538;28;20043;-83
2023/07/04 04:12:08;;;;;;;15.02;5.53;;;13.50;99.90;;;;;;5092617;28;20040;-83
2023/07/04 04:14:35;;;;;;;11.50;3.08;;;13.60;99.90;;;;;;5110714;28;20556;-83
2023/07/04 04:17:01;;;;;;;11.57;2.72;;;13.60;99.90;;;;;;5109746;28;20040;-83
2023/07/04 04:19:27;;;;;;;9.27;2.97;;;13.60;99.90;;;;;;5109250;28;20036;-83
2023/07/04 04:21:53;;;;;;;10.02;2.95;;;13.60;99.90;;;;;;5110087;28;20481;-83
2023/07/04 04:24:20;;;;;;;13.90;2.67;;;13.60;99.90;;;;;;5110476;28;20122;-83
2023/07/04 04:26:46;;;;;;;13.90;5.00;;;13.60;99.90;;;;;;5109861;28;20420;-83
2023/07/04 04:29:14;;;;;;;14.45;5.32;;;13.70;99.90;;;;;;5092500;28;20468;-83
2023/07/04 04:31:39;;;;;;;10.70;3.17;;;13.70;99.90;;;;;;5109989;28;20118;-82
2023/07/04 04:34:06;;;;;;;9.88;3.35;;;13.70;99.90;;;;;;5092288;28;20122;-83
2023/07/04 04:36:33;;;;;;;13.02;5.22;;;13.70;99.90;;;;;;5092680;28;20050;-83
2023/07/04 04:38:59;;;;;;;8.82;2.60;;;13.70;99.90;;;;;;5092841;28;20047;-83
2023/07/04 04:41:29;;;;;;;12.63;4.72;;;13.70;99.90;;;;;;5109097;28;20726;-83
2023/07/04 04:43:56;;;;;;;9.77;2.83;;;13.80;99.90;;;;;;5092909;28;20047;-83
2023/07/04 04:46:22;;;;;;;11.07;2.38;;;13.80;99.90;;;;;;5093131;28;20457;-83
2023/07/04 04:48:50;;;;;;;8.40;2.50;;;13.70;99.90;;;;;;5091217;28;20043;-83
2023/07/04 04:51:18;;;;;;;9.57;2.70;;;13.70;99.90;;;;;;5108536;28;20051;-83
2023/07/04 04:53:44;;;;;;;10.93;4.15;;;13.70;99.90;;;;;;5092500;28;20039;-83
2023/07/04 04:56:11;;;;;;;9.32;2.95;;;13.80;99.90;;;;;;5092375;28;20042;-83
2023/07/04 04:58:37;;;;;;;8.55;2.22;;;13.80;99.90;;;;;;5109348;28;20027;-83
2023/07/04 05:01:24;;;;;;;8.00;2.55;;;13.80;99.90;;;;;;5110531;28;20131;-83
2023/07/04 05:03:52;;;;;;;7.95;2.28;;;13.80;99.90;;;;;;5113687;28;20039;-83
2023/07/04 05:06:18;;;;;;;7.68;2.25;;;13.80;99.90;;;;;;5096442;28;20176;-83
2023/07/04 05:08:44;;;;;;;10.75;3.85;;;13.80;99.90;;;;;;5112578;28;20071;-83
2023/07/04 05:11:09;;;;;;;11.70;3.88;;;13.90;99.90;;;;;;5111289;28;20207;-83
2023/07/04 05:13:37;;;;;;;7.95;2.05;;;13.90;99.90;;;;;;5095292;28;20467;-83
2023/07/04 05:16:05;;;;;;;6.55;1.88;;;13.90;99.90;;;;;;5113127;28;20485;-83
2023/07/04 05:18:33;;;;;;;7.55;1.90;;;13.90;99.90;;;;;;5112129;28;20046;-83
2023/07/04 05:21:09;;;;;;;5.68;1.98;;;13.90;99.90;;;;;;5094014;28;20683;-83
2023/07/04 05:23:36;;;;;;;8.98;2.13;;;13.90;99.90;;;;;;5112969;28;20036;-83
2023/07/04 05:26:11;;;;;;;11.90;3.50;;;13.90;99.90;;;;;;5096032;28;20031;-83
2023/07/04 05:28:38;;;;;;;12.05;3.58;;;14.00;99.90;;;;;;5090887;28;20046;-82
2023/07/04 05:31:09;;;;;;;7.43;2.28;;;14.00;99.90;;;;;;5092365;28;20085;-82
2023/07/04 05:33:36;;;;;;;6.72;2.25;;;14.10;99.90;;;;;;5106676;28;20467;-82
2023/07/04 05:36:15;;;;;;;8.55;1.95;;;14.00;99.90;;;;;;5112260;28;20046;-83
2023/07/04 05:38:42;;;;;;;9.15;2.42;;;14.00;99.90;;;;;;5111449;28;20062;-82
2023/07/04 05:41:10;;;;;;;6.93;1.83;;;14.10;99.90;;;;;;5111975;28;20571;-83
2023/07/04 05:43:36;;;;;;;8.98;3.20;;;14.10;99.90;;;;;;5111537;28;20393;-83
2023/07/04 05:46:02;;;;;;;14.98;3.35;;;14.10;99.90;;;;;;5111794;28;20461;-84
2023/07/04 05:48:28;;;;;;;9.63;3.15;;;14.20;99.90;;;;;;5113371;28;20516;-83
2023/07/04 05:51:00;;;;;;;10.57;3.50;;;14.20;99.90;;;;;;5111602;28;20054;-84
2023/07/04 05:53:28;;;;;;;10.07;2.58;;;14.30;99.90;;;;;;5111478;28;20088;-84
2023/07/04 05:56:06;;;;;;;11.13;1.98;;;14.30;99.90;;;;;;5111846;28;20059;-83
2023/07/04 05:58:32;;;;;;;8.07;2.10;;;14.30;99.90;;;;;;5093645;28;20047;-83
2023/07/04 06:01:10;;;;;;;10.40;3.33;;;14.30;99.90;;;;;;5110760;28;20031;-83
2023/07/04 06:03:37;;;;;;;8.00;2.15;;;14.40;99.90;;;;;;5111908;28;20409;-83
2023/07/04 06:06:04;;;;;;;5.70;1.80;;;14.30;99.90;;;;;;5112173;28;20487;-83
2023/07/04 06:08:31;;;;;;;11.45;3.20;;;14.40;99.90;;;;;;5094597;28;20472;-83
2023/07/04 06:11:03;;;;;;;11.25;3.35;;;14.40;99.90;;;;;;5094134;28;20039;-84
2023/07/04 06:13:28;;;;;;;5.78;1.65;;;14.50;99.90;;;;;;5093637;28;20032;-84
2023/07/04 06:15:55;;;;;;;6.10;1.67;;;14.50;99.90;;;;;;5094883;28;20084;-84
2023/07/04 06:18:21;;;;;;;7.28;1.75;;;14.50;99.90;;;;;;5094588;28;20043;-84
2023/07/04 06:20:46;;;;;;;10.77;3.17;;;14.50;99.90;;;;;;5112040;28;20036;-84
2023/07/04 06:23:13;;;;;;;12.90;3.50;;;14.60;99.90;;;;;;5112932;28;20035;-84
2023/07/04 06:25:38;;;;;;;9.13;2.78;;;14.80;99.90;;;;;;5111424;28;20136;-84
2023/07/04 06:28:04;;;;;;;5.95;1.65;;;14.80;99.90;;;;;;5111484;28;20097;-84
2023/07/04 06:30:33;;;;;;;11.40;2.83;;;14.80;99.90;;;;;;5093468;28;20039;-85
2023/07/04 06:32:58;;;;;;;7.53;1.50;;;14.90;99.90;;;;;;5111473;28;20404;-84
2023/07/04 06:35:24;;;;;;;10.48;2.75;;;14.90;99.90;;;;;;5111345;28;20036;-84
2023/07/04 06:37:50;;;;;;;7.15;1.52;;;15.00;99.90;;;;;;5093844;28;20557;-85
2023/07/04 06:40:18;;;;;;;7.03;1.50;;;15.00;99.90;;;;;;5093890;28;20039;-84
2023/07/04 06:42:44;;;;;;;6.90;1.52;;;15.00;99.90;;;;;;5111580;28;20046;-85
2023/07/04 06:45:09;;;;;;;6.35;1.58;;;15.10;99.90;;;;;;5111442;28;20043;-84
2023/07/04 06:47:35;;;;;;;6.72;1.70;;;15.20;99.90;;;;;;5094371;28;20043;-85
2023/07/04 06:50:01;;;;;;;8.43;2.42;;;15.30;99.90;;;;;;5110619;28;20041;-85
2023/07/04 06:52:26;;;;;;;6.63;1.75;;;15.40;99.90;;;;;;5110972;28;20043;-85
2023/07/04 06:54:52;;;;;;;8.27;2.22;;;15.50;99.90;;;;;;5111089;28;20043;-85
2023/07/04 06:57:19;;;;;;;6.38;1.73;;;15.50;99.90;;;;;;5111068;28;20036;-84
2023/07/04 06:59:45;;;;;;;5.85;1.85;;;15.50;99.90;;;;;;5110400;28;20616;-84
2023/07/04 07:02:14;;;;;;;18.73;2.65;;;15.60;99.90;;;;;;5110978;28;20054;-84
2023/07/04 07:04:41;;;;;;;7.47;2.35;;;15.60;99.90;;;;;;5111278;28;20084;-84
2023/07/04 07:07:09;;;;;;;8.30;2.30;;;15.70;99.90;;;;;;5110890;28;20039;-84
2023/07/04 07:09:41;;;;;;;6.25;2.40;;;15.80;99.90;;;;;;5110598;28;20095;-85
2023/07/04 07:12:12;;;;;;;6.10;1.48;;;15.80;99.90;;;;;;5094020;28;20401;-85
2023/07/04 07:14:38;;;;;;;8.63;2.58;;;15.80;99.90;;;;;;5110112;28;20164;-85
2023/07/04 07:17:05;;;;;;;7.10;1.33;;;15.90;99.90;;;;;;5093550;28;20039;-85
2023/07/04 07:19:31;;;;;;;6.68;2.28;;;15.90;99.90;;;;;;5093387;28;20032;-85
2023/07/04 07:21:59;;;;;;;6.43;1.80;;;15.90;99.90;;;;;;5110593;28;20080;-85
2023/07/04 07:24:24;;;;;;;11.00;2.25;;;15.90;99.90;;;;;;5110397;28;20051;-85
2023/07/04 07:26:50;;;;;;;7.07;1.60;;;15.90;99.90;;;;;;5093979;28;20043;-85
2023/07/04 07:29:16;;;;;;;9.00;2.38;;;15.90;99.90;;;;;;5110360;28;20043;-85
2023/07/04 07:31:41;;;;;;;10.90;2.80;;;16.10;99.90;;;;;;5111355;28;20067;-85
2023/07/04 07:34:07;;;;;;;11.30;2.97;;;16.20;99.90;;;;;;5110375;28;20404;-85
2023/07/04 07:36:41;;;;;;;7.10;1.55;;;16.30;99.90;;;;;;5093724;28;20036;-85
2023/07/04 07:39:09;;;;;;;8.95;2.85;;;16.40;99.90;;;;;;5093753;28;20463;-85
2023/07/04 07:41:39;;;;;;;7.88;2.38;;;16.50;99.90;;;;;;5110146;28;20404;-85
2023/07/04 07:44:05;;;;;;;5.05;1.55;;;16.60;99.90;;;;;;5110392;28;20071;-85
2023/07/04 07:46:31;;;;;;;9.10;2.63;;;16.60;99.90;;;;;;5110551;28;20443;-85
2023/07/04 07:48:58;;;;;;;9.75;2.22;;;16.60;99.90;;;;;;5093180;28;20036;-85
2023/07/04 07:51:24;;;;;;;9.82;2.67;;;16.70;99.90;;;;;;5109752;28;20408;-85
2023/07/04 07:53:53;;;;;;;8.32;2.72;;;16.70;99.90;;;;;;5110515;28;20500;-85
2023/07/04 07:56:21;;;;;;;9.98;2.30;;;16.70;99.90;;;;;;5110133;28;20044;-85
2023/07/04 07:58:47;;;;;;;8.68;2.03;;;16.80;99.90;;;;;;5110350;28;20418;-85
2023/07/04 08:01:13;;;;;;;6.07;1.92;;;16.90;99.90;;;;;;5109682;28;20084;-85
2023/07/04 08:03:39;;;;;;;10.60;2.65;;;16.90;99.90;;;;;;5092778;28;20100;-85
2023/07/04 08:06:05;;;;;;;10.45;2.53;;;17.00;99.90;;;;;;5110445;28;20038;-85
2023/07/04 08:08:31;;;;;;;10.90;2.80;;;17.00;99.90;;;;;;5110209;28;20118;-85
2023/07/04 08:10:57;;;;;;;9.40;2.30;;;17.10;99.90;;;;;;5109257;28;20031;-85
2023/07/04 08:13:23;;;;;;;9.20;2.55;;;17.10;99.90;;;;;;5093184;28;20423;-86
2023/07/04 08:15:55;;;;;;;6.88;1.55;;;17.20;99.90;;;;;;5092978;28;20043;-85
2023/07/04 08:18:21;;;;;;;;;;;17.30;99.90;;;;;;5104687;28;20080;-86
2023/07/04 08:21:02;;;;;;;7.05;1.70;;;17.20;99.90;;;;;;5097909;28;19994;-86
2023/07/04 08:23:28;;;;;;;12.63;2.88;;;17.30;99.90;;;;;;5088419;28;20037;-85
2023/07/04 08:25:54;;;;;;;11.20;2.50;;;17.30;99.90;;;;;;5094729;28;20032;-85
2023/07/04 08:28:23;;;;;;;11.30;2.80;;;17.40;99.90;;;;;;5104332;28;20050;-86
2023/07/04 08:30:50;;;;;;;11.32;2.72;;;17.50;99.90;;;;;;5109230;28;20043;-86
2023/07/04 08:33:16;;;;;;;11.30;2.67;;;17.50;99.90;;;;;;5109835;28;20043;-86
2023/07/04 08:35:54;;;;;;;11.45;2.85;;;17.60;99.90;;;;;;5092785;28;20035;-85
2023/07/04 08:38:20;;;;;;;10.10;2.72;;;17.60;99.90;;;;;;5114185;28;20435;-86
2023/07/04 08:40:46;;;;;;;11.70;3.30;;;17.60;99.90;;;;;;5113706;28;20035;-86
2023/07/04 08:43:12;;;;;;;8.52;1.88;;;17.70;99.90;;;;;;5113583;28;20110;-85
2023/07/04 08:45:38;;;;;;;10.30;3.08;;;17.70;99.90;;;;;;5110622;28;20039;-86
2023/07/04 08:48:04;;;;;;;11.80;3.25;;;17.70;99.90;;;;;;5110523;28;20047;-86
2023/07/04 08:50:34;;;;;;;14.63;3.25;;;17.70;99.90;;;;;;5096602;28;20451;-86
2023/07/04 08:53:14;;;;;;;8.73;1.67;;;17.80;99.90;;;;;;5098098;28;20039;-86
2023/07/04 08:55:50;;;;;;;11.93;2.90;;;17.70;99.90;;;;;;5096802;28;20539;-86
2023/07/04 08:58:19;;;;;;;12.45;3.03;;;17.60;99.90;;;;;;5113969;28;20028;-86
2023/07/04 09:00:45;;;;;;;8.38;2.30;;;17.50;99.90;;;;;;5096338;28;20051;-86
2023/07/04 09:03:20;;;;;;;12.40;3.15;;;17.40;99.90;;;;;;5096238;28;20094;-86
2023/07/04 09:06:10;;;;;;;13.32;3.00;;;17.40;99.90;;;;;;5113959;28;20108;-86
2023/07/04 09:09:00;;;;;;;10.93;3.00;;;17.30;99.90;;;;;;5113877;28;20127;-86
2023/07/04 09:11:28;;;;;;;10.55;2.97;;;17.30;99.90;;;;;;5114109;28;20165;-86
2023/07/04 09:13:59;;;;;;;10.32;3.05;;;17.30;99.90;;;;;;5113434;28;20389;-86
2023/07/04 09:16:33;;;;;;;15.02;2.38;;;17.20;99.90;;;;;;5113367;28;20059;-86
2023/07/04 09:19:10;;;;;;;8.23;1.58;;;17.00;99.90;;;;;;5096333;28;20032;-86
2023/07/04 09:21:39;;;;;;;14.93;3.15;;;16.80;99.90;;;;;;5096095;28;20436;-88
2023/07/04 09:24:05;;;;;;;12.95;3.25;;;16.80;99.90;;;;;;5096429;28;20040;-86
2023/07/04 09:26:49;;;;;;;16.05;3.47;;;16.80;99.90;;;;;;5113813;28;20435;-86
2023/07/04 09:29:22;;;;;;;11.55;2.42;;;16.70;99.90;;;;;;5113257;28;20511;-86
2023/07/04 09:31:55;;;;;;;11.90;1.88;;;16.70;99.90;;;;;;5095428;28;20046;-86
2023/07/04 09:34:35;;;;;;;13.27;3.15;;;16.70;99.90;;;;;;5113046;28;20386;-86
2023/07/04 09:37:10;;;;;;;13.13;2.80;;;16.70;99.90;;;;;;5112893;28;20043;-86
2023/07/04 09:39:57;;;;;;;8.73;1.58;;;16.80;99.90;;;;;;5112959;28;20036;-86
2023/07/04 09:42:40;;;;;;;8.20;2.10;;;16.80;99.90;;;;;;5112994;28;20089;-86
2023/07/04 09:45:11;;;;;;;10.38;2.30;;;16.90;99.90;;;;;;5096141;28;20076;-86
2023/07/04 09:47:43;;;;;;;10.23;2.30;;;17.00;99.90;;;;;;5112235;28;20039;-86
2023/07/04 09:50:10;;;;;;;11.35;2.22;;;17.10;99.90;;;;;;5112431;28;20115;-87
2023/07/04 09:52:36;;;;;;;7.90;1.95;;;17.10;99.90;;;;;;5112824;28;20165;-86
2023/07/04 09:55:39;;;;;;;10.20;2.40;;;17.20;99.90;;;;;;5095890;28;20475;-86
2023/07/04 09:58:15;;;;;;;8.48;2.13;;;17.40;99.90;;;;;;5033923;28;20052;-86
2023/07/04 10:00:44;;;;;;;9.88;2.40;;;17.60;99.90;;;;;;5033833;28;20045;-86
2023/07/04 10:03:10;;;;;;;9.48;2.40;;;17.60;99.90;;;;;;5017424;28;20102;-86
2023/07/04 10:05:37;;;;;;;9.52;2.33;;;17.60;99.90;;;;;;5034436;28;20128;-86
2023/07/04 10:08:11;;;;;;;8.20;1.92;;;17.60;99.90;;;;;;5017824;28;20056;-86
2023/07/04 10:10:48;;;;;;;8.77;2.42;;;17.60;99.90;;;;;;5033494;28;20041;-86
2023/07/04 10:13:15;;;;;;;12.32;3.22;;;17.70;99.90;;;;;;5017380;28;20048;-86
2023/07/04 10:15:45;;;;;;;10.93;2.85;;;17.90;99.90;;;;;;5033935;28;20450;-86
2023/07/04 10:18:29;;;;;;;10.35;2.88;;;18.00;99.90;;;;;;5034013;28;20424;-86
2023/07/04 10:20:57;;;;;;;10.80;2.90;;;18.10;99.90;;;;;;5016580;28;20132;-86
2023/07/04 10:23:26;;;;;;;8.77;2.60;;;18.20;99.90;;;;;;5033674;28;20040;-86
2023/07/04 10:25:54;;;;;;;8.57;2.72;;;18.40;99.90;;;;;;5034602;28;20036;-86
2023/07/04 10:28:25;;;;;;;11.77;3.30;;;18.60;99.90;;;;;;5050541;28;20049;-85
2023/07/04 10:30:56;;;;;;;11.73;3.08;;;18.90;99.90;;;;;;5032852;28;20119;-85
2023/07/04 10:33:47;;;;;;;9.23;2.25;;;18.90;99.90;;;;;;5035989;28;20053;-86
2023/07/04 10:36:19;;;;;;;11.02;2.92;;;18.80;99.90;;;;;;5098472;28;20493;-86
2023/07/04 10:38:49;;;;;;;11.33;3.10;;;18.50;99.90;;;;;;5095048;28;20040;-86
2023/07/04 10:41:17;;;;;;;11.05;3.30;;;18.30;99.90;;;;;;5111807;28;20284;-86
2023/07/04 10:43:48;;;;;;;10.27;2.50;;;18.20;99.90;;;;;;5094584;28;20040;-86
2023/07/04 10:46:20;;;;;;;9.18;3.10;;;18.10;99.90;;;;;;5095060;28;20104;-86
2023/07/04 10:48:49;;;;;;;13.43;3.45;;;18.10;99.90;;;;;;5094915;28;20126;-86
2023/07/04 10:51:24;;;;;;;10.43;2.78;;;18.10;99.90;;;;;;5110880;28;20050;-86
2023/07/04 10:53:50;;;;;;;9.43;2.08;;;18.10;99.90;;;;;;5111361;28;20077;-86
2023/07/04 10:56:30;;;;;;;12.50;3.20;;;18.00;99.90;;;;;;5111632;28;20473;-86
2023/07/04 10:59:24;;;;;;;10.82;3.15;;;18.10;99.90;;;;;;5088812;28;20089;-86
2023/07/04 11:01:58;;;;;;;10.45;2.95;;;18.20;99.90;;;;;;5105820;28;20035;-86
2023/07/04 11:04:33;;;;;;;12.43;3.20;;;18.30;99.90;;;;;;5100302;28;20040;-86
2023/07/04 11:07:16;;;;;;;10.73;2.83;;;18.30;99.90;;;;;;5085885;28;20043;-86
2023/07/04 11:09:42;;;;;;;13.30;3.30;;;18.20;98.80;;;;;;5094149;28;20092;-86
2023/07/04 11:12:15;;;;;;;11.15;3.28;;;18.20;98.60;;;;;;5104722;28;20046;-86
2023/07/04 11:14:43;;;;;;;13.23;2.97;;;18.20;97.10;;;;;;5094294;28;20085;-86
2023/07/04 11:17:17;;;;;;;11.00;3.45;;;18.30;97.00;;;;;;5110258;28;20118;-86
2023/07/04 11:19:56;;;;;;;13.57;3.20;;;18.30;99.40;;;;;;5110435;28;20075;-87
2023/07/04 11:22:57;;;;;;;11.50;3.60;;;18.40;99.90;;;;;;5106940;28;20043;-86
2023/07/04 11:25:31;;;;;;;10.40;3.50;;;18.40;99.90;;;;;;5107440;28;20062;-86
2023/07/04 11:28:14;;;;;;;10.85;3.30;;;18.30;99.90;;;;;;5108106;28;20048;-86
2023/07/04 11:30:41;;;;;;;12.25;3.08;;;18.30;99.90;;;;;;5090387;28;20043;-86
2023/07/04 11:33:08;;;;;;;15.35;3.60;;;18.30;99.90;;;;;;5107118;28;20120;-86
2023/07/04 11:35:34;;;;;;;10.50;3.38;;;18.20;99.90;;;;;;5107462;28;20040;-86
2023/07/04 11:38:15;;;;;;;13.57;4.22;;;18.20;99.90;;;;;;5090414;28;20126;-86
2023/07/04 11:40:49;;;;;;;11.60;3.72;;;18.20;99.90;;;;;;5106960;28;20042;-86
2023/07/04 11:43:27;;;;;;;13.88;4.38;;;18.20;99.90;;;;;;5090280;28;20043;-86
2023/07/04 11:45:55;;;;;;;14.63;4.40;;;18.20;99.90;;;;;;5110137;28;20046;-86
2023/07/04 11:48:23;;;;;;;10.93;2.55;;;18.10;99.90;;;;;;5093748;28;20088;-86
2023/07/04 11:50:51;;;;;;;12.07;3.85;;;18.10;99.90;;;;;;5093502;28;20051;-86
2023/07/04 11:53:38;;;;;;;12.02;3.85;;;18.20;99.90;;;;;;5093486;28;20044;-86
2023/07/04 11:56:15;;;;;;;11.50;3.22;;;18.40;99.90;;;;;;5110499;28;20043;-86
2023/07/04 11:58:41;;;;;;;14.45;3.63;;;18.70;99.90;;;;;;5093964;28;20050;-86
2023/07/04 12:01:07;;;;;;;12.65;3.70;;;18.80;99.90;;;;;;5109981;28;20485;-86
2023/07/04 12:03:47;;;;;;;12.75;4.00;;;18.80;99.90;;;;;;5110233;28;20489;-86
2023/07/04 12:06:56;;;;;;;13.68;3.70;;;18.80;99.90;;;;;;5093876;28;20038;-86
2023/07/04 12:09:32;;;;;;;12.00;3.60;;;18.90;99.90;;;;;;5097113;28;20043;-86
2023/07/04 12:11:59;;;;;;;13.05;3.45;;;19.00;99.70;;;;;;5092933;28;20035;-86
2023/07/04 12:14:26;;;;;;;9.93;2.30;;;18.90;99.90;;;;;;5110100;28;20075;-86
2023/07/04 12:16:51;;;;;;;15.15;3.20;;;18.70;99.90;;;;;;5093233;28;20038;-86
2023/07/04 12:19:18;;;;;;;10.07;3.20;;;18.60;98.30;;;;;;5093192;28;20031;-86
2023/07/04 12:21:48;;;;;;;12.85;3.30;;;18.60;99.90;;;;;;5109860;28;20036;-86
2023/07/04 12:24:24;;;;;;;10.77;3.10;;;18.60;99.90;;;;;;5110099;28;20039;-86
2023/07/04 12:26:57;;;;;;;10.82;3.58;;;18.70;98.80;;;;;;5093827;28;20050;-86
2023/07/04 12:29:24;;;;;;;11.27;3.00;;;18.70;97.00;;;;;;5110321;28;20435;-86
2023/07/04 12:32:08;;;;;;;10.88;3.00;;;18.60;93.20;;;;;;5109472;28;20082;-87
2023/07/04 12:34:34;;;;;;;12.60;3.45;;;18.60;90.90;;;;;;5110018;28;20036;-87
2023/07/04 12:37:05;;;;;;;11.30;3.25;;;18.60;92.30;;;;;;5110045;28;20122;-87
2023/07/04 12:39:36;;;;;;;11.57;2.88;;;18.70;92.00;;;;;;5110093;28;20122;-87
2023/07/04 12:42:04;;;;;;;9.98;3.22;;;18.70;89.30;;;;;;5109785;28;20639;-86
2023/07/04 12:44:35;;;;;;;12.15;2.88;;;18.70;89.60;;;;;;5109947;28;20091;-86
2023/07/04 12:47:08;;;;;;;12.10;2.80;;;18.80;86.50;;;;;;5110496;28;20040;-87
2023/07/04 12:49:34;;;;;;;11.95;3.20;;;18.80;86.60;;;;;;5109835;28;20047;-86
2023/07/04 12:52:01;;;;;;;11.50;2.88;;;18.80;87.90;;;;;;5092797;28;20035;-86